sensor_id;sensor_type;location;lat;lon;timestamp;pressure;altitude;pressure_sealevel;temperature;humidity
12636;BME280;6383;50.830;7.210;2023-04-01T00:01:13;98784.88;;;13.24;63.74
12636;BME280;6383;50.830;7.210;2023-04-01T00:03:43;98775.09;;;13.23;63.91
12636;BME280;6383;50.830;7.210;2023-04-01T00:06:14;98769.63;;;13.23;64.29
12636;BME280;6383;50.830;7.210;2023-04-01T00:08:44;98763.75;;;13.21;63.26
12636;BME280;6383;50.830;7.210;2023-04-01T00:11:13;98777.81;;;13.23;63.49
12636;BME280;6383;50.830;7.210;2023-04-01T00:13:41;98770.44;;;13.23;63.76
12636;BME280;6383;50.830;7.210;2023-04-01T00:16:11;98770.84;;;13.25;63.91
12636;BME280;6383;50.830;7.210;2023-04-01T00:18:40;98771.28;;;13.27;63.71
12636;BME280;6383;50.830;7.210;2023-04-01T00:21:10;98771.28;;;13.27;63.68
12636;BME280;6383;50.830;7.210;2023-04-01T00:23:40;98776.75;;;13.27;63.53
12636;BME280;6383;50.830;7.210;2023-04-01T00:26:09;98765.41;;;13.25;63.24
12636;BME280;6383;50.830;7.210;2023-04-01T00:28:40;98759.94;;;13.25;63.14
12636;BME280;6383;50.830;7.210;2023-04-01T00:31:09;98767.41;;;13.28;64.05
12636;BME280;6383;50.830;7.210;2023-04-01T00:33:39;98767.41;;;13.28;63.52
12636;BME280;6383;50.830;7.210;2023-04-01T00:36:09;98773.66;;;13.29;63.65
12636;BME280;6383;50.830;7.210;2023-04-01T00:38:40;98761.94;;;13.28;63.50
12636;BME280;6383;50.830;7.210;2023-04-01T00:41:10;98762.72;;;13.29;63.40
12636;BME280;6383;50.830;7.210;2023-04-01T00:43:42;98766.63;;;13.28;63.87
12636;BME280;6383;50.830;7.210;2023-04-01T00:46:11;98763.44;;;13.26;63.52
12636;BME280;6383;50.830;7.210;2023-04-01T00:48:42;98763.44;;;13.26;63.75
12636;BME280;6383;50.830;7.210;2023-04-01T00:51:16;98755.25;;;13.26;63.65
12636;BME280;6383;50.830;7.210;2023-04-01T00:53:50;98757.19;;;13.25;63.64
12636;BME280;6383;50.830;7.210;2023-04-01T00:56:21;98759.94;;;13.25;63.75
12636;BME280;6383;50.830;7.210;2023-04-01T00:58:57;98763.44;;;13.26;63.75
12636;BME280;6383;50.830;7.210;2023-04-01T01:01:27;98750.94;;;13.25;63.76
12636;BME280;6383;50.830;7.210;2023-04-01T01:03:58;98755.63;;;13.24;63.43
12636;BME280;6383;50.830;7.210;2023-04-01T01:06:41;98745.13;;;13.26;63.96
12636;BME280;6383;50.830;7.210;2023-04-01T01:09:38;98753.31;;;13.26;63.60
12636;BME280;6383;50.830;7.210;2023-04-01T01:12:13;98753.69;;;13.25;63.49
12636;BME280;6383;50.830;7.210;2023-04-01T01:14:51;98746.63;;;13.24;63.69
12636;BME280;6383;50.830;7.210;2023-04-01T01:17:26;98748.56;;;13.23;63.52
12636;BME280;6383;50.830;7.210;2023-04-01T01:20:38;98749.78;;;13.26;63.08
12636;BME280;6383;50.830;7.210;2023-04-01T01:26:42;98742.31;;;13.23;63.01
12636;BME280;6383;50.830;7.210;2023-04-01T01:32:14;98739.16;;;13.21;63.44
12636;BME280;6383;50.830;7.210;2023-04-01T01:34:51;98742.66;;;13.21;63.12
12636;BME280;6383;50.830;7.210;2023-04-01T01:37:26;98741.13;;;13.20;63.61
12636;BME280;6383;50.830;7.210;2023-04-01T01:39:58;98743.06;;;13.20;63.32
12636;BME280;6383;50.830;7.210;2023-04-01T01:42:29;98746.59;;;13.20;63.61
12636;BME280;6383;50.830;7.210;2023-04-01T01:45:00;98746.59;;;13.20;63.26
12636;BME280;6383;50.830;7.210;2023-04-01T01:47:31;98743.47;;;13.22;63.53
12636;BME280;6383;50.830;7.210;2023-04-01T01:50:02;98738.78;;;13.22;63.04
12636;BME280;6383;50.830;7.210;2023-04-01T01:52:32;98742.31;;;13.23;62.84
12636;BME280;6383;50.830;7.210;2023-04-01T01:55:00;98743.09;;;13.23;63.28
12636;BME280;6383;50.830;7.210;2023-04-01T01:57:32;98739.66;;;13.26;63.38
12636;BME280;6383;50.830;7.210;2023-04-01T02:00:06;98739.66;;;13.26;62.74
12636;BME280;6383;50.830;7.210;2023-04-01T02:02:41;98739.28;;;13.28;62.91
12636;BME280;6383;50.830;7.210;2023-04-01T02:05:10;98749.00;;;13.25;62.65
12636;BME280;6383;50.830;7.210;2023-04-01T02:07:49;98743.19;;;13.27;63.55
12636;BME280;6383;50.830;7.210;2023-04-01T02:10:22;98740.81;;;13.25;63.55
12636;BME280;6383;50.830;7.210;2023-04-01T02:12:56;98749.00;;;13.25;63.93
12636;BME280;6383;50.830;7.210;2023-04-01T02:15:27;98745.03;;;13.23;63.29
12636;BME280;6383;50.830;7.210;2023-04-01T02:17:58;98742.31;;;13.23;63.18
12636;BME280;6383;50.830;7.210;2023-04-01T02:20:27;98746.19;;;13.22;63.08
12636;BME280;6383;50.830;7.210;2023-04-01T02:22:59;98736.06;;;13.22;63.25
12636;BME280;6383;50.830;7.210;2023-04-01T02:25:29;98734.47;;;13.21;63.11
12636;BME280;6383;50.830;7.210;2023-04-01T02:28:00;98738.38;;;13.20;63.90
12636;BME280;6383;50.830;7.210;2023-04-01T02:30:32;98743.06;;;13.20;63.44
12636;BME280;6383;50.830;7.210;2023-04-01T02:33:04;98739.91;;;13.18;63.08
12636;BME280;6383;50.830;7.210;2023-04-01T02:35:35;98743.78;;;13.17;63.59
12636;BME280;6383;50.830;7.210;2023-04-01T02:38:06;98751.97;;;13.17;63.58
12636;BME280;6383;50.830;7.210;2023-04-01T02:40:44;98754.28;;;13.15;63.61
12636;BME280;6383;50.830;7.210;2023-04-01T02:43:14;98747.56;;;13.12;63.72
12636;BME280;6383;50.830;7.210;2023-04-01T02:45:44;98751.44;;;13.11;64.33
12636;BME280;6383;50.830;7.210;2023-04-01T02:48:13;98758.84;;;13.11;64.14
12636;BME280;6383;50.830;7.210;2023-04-01T02:50:41;98752.16;;;13.08;64.75
12636;BME280;6383;50.830;7.210;2023-04-01T02:53:10;98759.16;;;13.05;65.49
12636;BME280;6383;50.830;7.210;2023-04-01T02:55:40;98746.22;;;13.02;65.88
12636;BME280;6383;50.830;7.210;2023-04-01T02:58:09;98754.75;;;13.01;65.64
12636;BME280;6383;50.830;7.210;2023-04-01T03:00:37;98754.69;;;12.97;66.07
12636;BME280;6383;50.830;7.210;2023-04-01T03:03:06;98752.66;;;12.94;66.89
12636;BME280;6383;50.830;7.210;2023-04-01T03:05:35;98754.56;;;12.90;67.17
12636;BME280;6383;50.830;7.210;2023-04-01T03:08:04;98758.00;;;12.87;66.94
12636;BME280;6383;50.830;7.210;2023-04-01T03:10:41;98745.84;;;12.85;66.78
12636;BME280;6383;50.830;7.210;2023-04-01T03:13:10;98748.50;;;12.81;67.23
12636;BME280;6383;50.830;7.210;2023-04-01T03:15:39;98748.03;;;12.76;67.03
12636;BME280;6383;50.830;7.210;2023-04-01T03:18:14;98740.63;;;12.76;67.52
12636;BME280;6383;50.830;7.210;2023-04-01T03:20:42;98742.13;;;12.74;68.32
12636;BME280;6383;50.830;7.210;2023-04-01T03:23:12;98744.41;;;12.71;68.41
12636;BME280;6383;50.830;7.210;2023-04-01T03:25:42;98739.22;;;12.66;68.86
12636;BME280;6383;50.830;7.210;2023-04-01T03:28:12;98735.28;;;12.64;69.47
12636;BME280;6383;50.830;7.210;2023-04-01T03:30:41;98743.41;;;12.60;69.61
12636;BME280;6383;50.830;7.210;2023-04-01T03:33:10;98746.84;;;12.57;70.39
12636;BME280;6383;50.830;7.210;2023-04-01T03:35:39;98749.50;;;12.54;69.95
12636;BME280;6383;50.830;7.210;2023-04-01T03:38:07;98741.59;;;12.49;69.96
12636;BME280;6383;50.830;7.210;2023-04-01T03:40:35;98744.25;;;12.45;70.39
12636;BME280;6383;50.830;7.210;2023-04-01T03:43:06;98741.09;;;12.43;70.58
12636;BME280;6383;50.830;7.210;2023-04-01T03:45:43;98747.69;;;12.42;70.58
12636;BME280;6383;50.830;7.210;2023-04-01T03:48:12;98745.31;;;12.41;69.57
12636;BME280;6383;50.830;7.210;2023-04-01T03:50:40;98736.63;;;12.35;70.85
12636;BME280;6383;50.830;7.210;2023-04-01T03:53:09;98747.53;;;12.35;71.07
12636;BME280;6383;50.830;7.210;2023-04-01T03:55:37;98745.94;;;12.34;71.22
12636;BME280;6383;50.830;7.210;2023-04-01T03:58:07;98740.47;;;12.34;71.45
12636;BME280;6383;50.830;7.210;2023-04-01T04:00:36;98740.84;;;12.32;71.79
12636;BME280;6383;50.830;7.210;2023-04-01T04:03:06;98746.28;;;12.32;71.54
12636;BME280;6383;50.830;7.210;2023-04-01T04:05:34;98742.78;;;12.32;72.07
12636;BME280;6383;50.830;7.210;2023-04-01T04:08:03;98750.59;;;12.33;72.08
12636;BME280;6383;50.830;7.210;2023-04-01T04:10:33;98743.22;;;12.34;72.00
12636;BME280;6383;50.830;7.210;2023-04-01T04:13:03;98751.75;;;12.32;71.82
12636;BME280;6383;50.830;7.210;2023-04-01T04:15:34;98751.75;;;12.32;72.15
12636;BME280;6383;50.830;7.210;2023-04-01T04:18:03;98758.38;;;12.31;71.49
12636;BME280;6383;50.830;7.210;2023-04-01T04:20:32;98750.56;;;12.30;72.11
12636;BME280;6383;50.830;7.210;2023-04-01T04:23:00;98751.34;;;12.30;71.61
12636;BME280;6383;50.830;7.210;2023-04-01T04:25:28;98758.38;;;12.31;71.86
12636;BME280;6383;50.830;7.210;2023-04-01T04:27:58;98745.94;;;12.34;71.33
12636;BME280;6383;50.830;7.210;2023-04-01T04:30:27;98753.41;;;12.37;71.31
12636;BME280;6383;50.830;7.210;2023-04-01T04:32:56;98752.28;;;12.38;71.29
12636;BME280;6383;50.830;7.210;2023-04-01T04:35:25;98751.13;;;12.39;70.38
12636;BME280;6383;50.830;7.210;2023-04-01T04:37:55;98751.91;;;12.40;70.23
12636;BME280;6383;50.830;7.210;2023-04-01T04:40:24;98749.63;;;12.42;70.02
12636;BME280;6383;50.830;7.210;2023-04-01T04:42:53;98751.22;;;12.43;70.67
12636;BME280;6383;50.830;7.210;2023-04-01T04:45:22;98757.09;;;12.45;69.81
12636;BME280;6383;50.830;7.210;2023-04-01T04:47:52;98745.41;;;12.44;70.18
12636;BME280;6383;50.830;7.210;2023-04-01T04:50:23;98752.50;;;12.49;70.36
12636;BME280;6383;50.830;7.210;2023-04-01T04:52:53;98751.34;;;12.50;70.07
12636;BME280;6383;50.830;7.210;2023-04-01T04:55:22;98763.50;;;12.52;70.43
12636;BME280;6383;50.830;7.210;2023-04-01T04:57:51;98757.25;;;12.52;70.25
12636;BME280;6383;50.830;7.210;2023-04-01T05:00:18;98767.44;;;12.55;69.93
12636;BME280;6383;50.830;7.210;2023-04-01T05:02:47;98767.44;;;12.55;70.01
12636;BME280;6383;50.830;7.210;2023-04-01T05:05:15;98762.78;;;12.55;70.68
12636;BME280;6383;50.830;7.210;2023-04-01T05:07:46;98764.72;;;12.55;70.66
12636;BME280;6383;50.830;7.210;2023-04-01T05:10:15;98766.66;;;12.54;71.01
12636;BME280;6383;50.830;7.210;2023-04-01T05:12:44;98767.00;;;12.53;71.06
12636;BME280;6383;50.830;7.210;2023-04-01T05:15:14;98765.00;;;12.50;71.15
12636;BME280;6383;50.830;7.210;2023-04-01T05:17:43;98771.59;;;12.49;71.41
12636;BME280;6383;50.830;7.210;2023-04-01T05:20:12;98771.16;;;12.47;71.58
12636;BME280;6383;50.830;7.210;2023-04-01T05:22:42;98773.13;;;12.46;71.26
12636;BME280;6383;50.830;7.210;2023-04-01T05:25:13;98773.47;;;12.45;72.02
12636;BME280;6383;50.830;7.210;2023-04-01T05:27:42;98785.19;;;12.45;71.80
12636;BME280;6383;50.830;7.210;2023-04-01T05:30:11;98782.47;;;12.45;72.23
12636;BME280;6383;50.830;7.210;2023-04-01T05:32:39;98775.78;;;12.43;72.53
12636;BME280;6383;50.830;7.210;2023-04-01T05:35:08;98784.31;;;12.41;72.38
12636;BME280;6383;50.830;7.210;2023-04-01T05:37:36;98784.66;;;12.40;72.96
12636;BME280;6383;50.830;7.210;2023-04-01T05:40:06;98788.19;;;12.40;73.17
12636;BME280;6383;50.830;7.210;2023-04-01T05:42:37;98788.97;;;12.41;73.17
12636;BME280;6383;50.830;7.210;2023-04-01T05:45:06;98784.66;;;12.40;73.74
12636;BME280;6383;50.830;7.210;2023-04-01T05:47:35;98787.38;;;12.40;73.58
12636;BME280;6383;50.830;7.210;2023-04-01T05:50:05;98788.53;;;12.39;74.43
12636;BME280;6383;50.830;7.210;2023-04-01T05:52:34;98787.28;;;12.36;73.80
12636;BME280;6383;50.830;7.210;2023-04-01T05:55:04;98786.50;;;12.35;73.58
12636;BME280;6383;50.830;7.210;2023-04-01T05:57:33;98795.03;;;12.34;74.32
12636;BME280;6383;50.830;7.210;2023-04-01T06:00:07;98801.66;;;12.33;74.14
12636;BME280;6383;50.830;7.210;2023-04-01T06:02:35;98793.03;;;12.31;74.39
12636;BME280;6383;50.830;7.210;2023-04-01T06:05:13;98798.91;;;12.33;74.66
12636;BME280;6383;50.830;7.210;2023-04-01T06:07:43;98800.44;;;12.30;75.68
12636;BME280;6383;50.830;7.210;2023-04-01T06:10:14;98805.50;;;12.32;74.85
12636;BME280;6383;50.830;7.210;2023-04-01T06:13:02;98806.69;;;12.31;74.56
12636;BME280;6383;50.830;7.210;2023-04-01T06:15:39;98808.19;;;12.28;75.36
12636;BME280;6383;50.830;7.210;2023-04-01T06:21:37;98810.91;;;12.28;75.39
12636;BME280;6383;50.830;7.210;2023-04-01T06:24:24;98817.50;;;12.27;75.94
12636;BME280;6383;50.830;7.210;2023-04-01T06:27:00;98819.09;;;12.28;75.97
12636;BME280;6383;50.830;7.210;2023-04-01T06:29:44;98819.53;;;12.30;75.76
12636;BME280;6383;50.830;7.210;2023-04-01T06:32:32;98827.72;;;12.30;75.58
12636;BME280;6383;50.830;7.210;2023-04-01T06:35:17;98824.59;;;12.32;76.46
12636;BME280;6383;50.830;7.210;2023-04-01T06:37:57;98829.31;;;12.31;75.38
12636;BME280;6383;50.830;7.210;2023-04-01T06:40:49;98827.28;;;12.28;75.74
12636;BME280;6383;50.830;7.210;2023-04-01T06:43:28;98825.69;;;12.27;75.69
12636;BME280;6383;50.830;7.210;2023-04-01T06:46:09;98822.63;;;12.29;75.94
12636;BME280;6383;50.830;7.210;2023-04-01T06:48:53;98825.78;;;12.31;76.62
12636;BME280;6383;50.830;7.210;2023-04-01T06:51:34;98834.75;;;12.31;76.35
12636;BME280;6383;50.830;7.210;2023-04-01T06:54:11;98842.94;;;12.31;76.24
12636;BME280;6383;50.830;7.210;2023-04-01T06:56:44;98837.50;;;12.31;76.82
12636;BME280;6383;50.830;7.210;2023-04-01T06:59:17;98842.94;;;12.31;76.07
12636;BME280;6383;50.830;7.210;2023-04-01T07:01:50;98846.44;;;12.32;76.95
12636;BME280;6383;50.830;7.210;2023-04-01T07:04:25;98835.53;;;12.32;76.28
12636;BME280;6383;50.830;7.210;2023-04-01T07:06:57;98839.47;;;12.34;76.69
12636;BME280;6383;50.830;7.210;2023-04-01T07:09:28;98845.38;;;12.36;75.92
12636;BME280;6383;50.830;7.210;2023-04-01T07:12:02;98847.41;;;12.40;76.63
12636;BME280;6383;50.830;7.210;2023-04-01T07:14:35;98842.75;;;12.40;76.72
12636;BME280;6383;50.830;7.210;2023-04-01T07:17:09;98850.56;;;12.42;76.39
12636;BME280;6383;50.830;7.210;2023-04-01T07:19:45;98845.56;;;12.44;76.11
12636;BME280;6383;50.830;7.210;2023-04-01T07:22:19;98853.00;;;12.47;75.06
12636;BME280;6383;50.830;7.210;2023-04-01T07:24:51;98858.75;;;12.42;76.11
12636;BME280;6383;50.830;7.210;2023-04-01T07:27:23;98855.69;;;12.43;76.65
12636;BME280;6383;50.830;7.210;2023-04-01T07:29:51;98856.91;;;12.46;76.83
12636;BME280;6383;50.830;7.210;2023-04-01T07:32:33;98855.03;;;12.50;76.62
12636;BME280;6383;50.830;7.210;2023-04-01T07:35:20;98862.53;;;12.53;76.54
12636;BME280;6383;50.830;7.210;2023-04-01T07:38:03;98858.66;;;12.54;76.41
12636;BME280;6383;50.830;7.210;2023-04-01T07:40:39;98858.31;;;12.55;77.42
12636;BME280;6383;50.830;7.210;2023-04-01T07:43:35;98857.94;;;12.57;76.32
12636;BME280;6383;50.830;7.210;2023-04-01T07:46:14;98861.03;;;12.55;76.90
12636;BME280;6383;50.830;7.210;2023-04-01T07:48:54;98865.78;;;12.58;77.66
12636;BME280;6383;50.830;7.210;2023-04-01T07:51:31;98874.31;;;12.57;77.22
12636;BME280;6383;50.830;7.210;2023-04-01T07:54:08;98881.72;;;12.56;77.90
12636;BME280;6383;50.830;7.210;2023-04-01T07:56:45;98880.47;;;12.54;77.30
12636;BME280;6383;50.830;7.210;2023-04-01T07:59:24;98882.78;;;12.52;77.69
12636;BME280;6383;50.830;7.210;2023-04-01T08:02:02;98883.13;;;12.50;78.11
12636;BME280;6383;50.830;7.210;2023-04-01T08:04:45;98885.41;;;12.48;78.13
12636;BME280;6383;50.830;7.210;2023-04-01T08:07:20;98878.38;;;12.47;77.01
12636;BME280;6383;50.830;7.210;2023-04-01T08:09:57;98894.22;;;12.42;77.83
12636;BME280;6383;50.830;7.210;2023-04-01T08:12:38;98885.25;;;12.41;79.01
12636;BME280;6383;50.830;7.210;2023-04-01T08:15:18;98898.81;;;12.38;79.38
12636;BME280;6383;50.830;7.210;2023-04-01T08:18:01;98901.88;;;12.36;79.44
12636;BME280;6383;50.830;7.210;2023-04-01T08:20:37;98906.09;;;12.33;80.25
12636;BME280;6383;50.830;7.210;2023-04-01T08:23:13;98913.59;;;12.36;79.93
12636;BME280;6383;50.830;7.210;2023-04-01T08:25:49;98914.03;;;12.39;80.69
12636;BME280;6383;50.830;7.210;2023-04-01T08:28:23;98924.94;;;12.39;81.18
12636;BME280;6383;50.830;7.210;2023-04-01T08:30:57;98918.69;;;12.38;81.27
12636;BME280;6383;50.830;7.210;2023-04-01T08:33:27;98925.38;;;12.41;81.48
12636;BME280;6383;50.830;7.210;2023-04-01T08:35:59;98921.50;;;12.42;81.22
12636;BME280;6383;50.830;7.210;2023-04-01T08:38:36;98923.53;;;12.45;81.75
12636;BME280;6383;50.830;7.210;2023-04-01T08:41:22;98925.94;;;12.46;81.89
12636;BME280;6383;50.830;7.210;2023-04-01T08:47:30;98932.88;;;12.44;82.01
12636;BME280;6383;50.830;7.210;2023-04-01T08:52:58;98937.19;;;12.45;81.57
12636;BME280;6383;50.830;7.210;2023-04-01T08:55:37;98938.31;;;12.44;82.06
12636;BME280;6383;50.830;7.210;2023-04-01T09:01:41;98953.47;;;12.41;82.32
12636;BME280;6383;50.830;7.210;2023-04-01T09:04:25;98959.25;;;12.40;82.24
12636;BME280;6383;50.830;7.210;2023-04-01T09:07:11;98956.44;;;12.36;82.83
12636;BME280;6383;50.830;7.210;2023-04-01T09:10:17;98963.03;;;12.35;82.21
12636;BME280;6383;50.830;7.210;2023-04-01T09:13:03;98960.66;;;12.33;82.79
12636;BME280;6383;50.830;7.210;2023-04-01T09:16:00;98961.44;;;12.34;82.60
12636;BME280;6383;50.830;7.210;2023-04-01T09:21:50;98974.56;;;12.28;82.68
12636;BME280;6383;50.830;7.210;2023-04-01T09:24:41;98975.38;;;12.29;82.94
12636;BME280;6383;50.830;7.210;2023-04-01T09:27:26;98972.53;;;12.25;82.65
12636;BME280;6383;50.830;7.210;2023-04-01T09:30:13;98984.59;;;12.24;83.39
12636;BME280;6383;50.830;7.210;2023-04-01T09:33:10;98985.28;;;12.21;83.75
12636;BME280;6383;50.830;7.210;2023-04-01T09:35:46;98986.34;;;12.17;83.06
12636;BME280;6383;50.830;7.210;2023-04-01T09:38:21;98992.94;;;12.16;83.50
12636;BME280;6383;50.830;7.210;2023-04-01T09:40:57;98994.09;;;12.15;83.78
12636;BME280;6383;50.830;7.210;2023-04-01T09:43:28;98992.06;;;12.12;83.89
12636;BME280;6383;50.830;7.210;2023-04-01T09:46:12;98991.72;;;12.13;83.72
12636;BME280;6383;50.830;7.210;2023-04-01T09:49:04;98994.44;;;12.13;84.02
12636;BME280;6383;50.830;7.210;2023-04-01T09:51:40;99006.47;;;12.12;83.97
12636;BME280;6383;50.830;7.210;2023-04-01T09:54:24;99005.34;;;12.13;84.15
12636;BME280;6383;50.830;7.210;2023-04-01T10:12:41;99018.00;;;12.21;84.72
12636;BME280;6383;50.830;7.210;2023-04-01T10:15:34;99029.72;;;12.22;84.67
12636;BME280;6383;50.830;7.210;2023-04-01T10:27:57;99036.63;;;12.31;84.91
12636;BME280;6383;50.830;7.210;2023-04-01T10:30:45;99037.75;;;12.30;84.58
12636;BME280;6383;50.830;7.210;2023-04-01T10:34:05;99047.16;;;12.33;83.84
12636;BME280;6383;50.830;7.210;2023-04-01T10:36:47;99038.97;;;12.33;83.81
12636;BME280;6383;50.830;7.210;2023-04-01T10:42:50;99037.94;;;12.38;83.99
12636;BME280;6383;50.830;7.210;2023-04-01T10:49:07;99046.22;;;12.41;82.73
12636;BME280;6383;50.830;7.210;2023-04-01T10:52:08;99052.47;;;12.42;83.62
12636;BME280;6383;50.830;7.210;2023-04-01T10:54:46;99048.97;;;12.41;83.12
12636;BME280;6383;50.830;7.210;2023-04-01T11:00:39;99053.72;;;12.44;82.64
12636;BME280;6383;50.830;7.210;2023-04-01T11:09:54;99056.53;;;12.48;82.28
12636;BME280;6383;50.830;7.210;2023-04-01T11:16:20;99065.34;;;12.57;82.15
12636;BME280;6383;50.830;7.210;2023-04-01T11:22:10;99060.88;;;12.64;81.75
12636;BME280;6383;50.830;7.210;2023-04-01T11:30:57;99072.78;;;12.72;81.56
12636;BME280;6383;50.830;7.210;2023-04-01T11:33:33;99076.66;;;12.71;81.73
12636;BME280;6383;50.830;7.210;2023-04-01T11:36:11;99078.59;;;12.70;81.79
12636;BME280;6383;50.830;7.210;2023-04-01T11:38:58;99075.84;;;12.70;82.02
12636;BME280;6383;50.830;7.210;2023-04-01T11:41:35;99089.16;;;12.72;81.85
12636;BME280;6383;50.830;7.210;2023-04-01T11:44:16;99084.84;;;12.71;81.52
12636;BME280;6383;50.830;7.210;2023-04-01T11:47:02;99088.00;;;12.73;82.46
12636;BME280;6383;50.830;7.210;2023-04-01T11:49:42;99098.59;;;12.75;82.38
12636;BME280;6383;50.830;7.210;2023-04-01T11:52:36;99098.66;;;12.78;82.40
12636;BME280;6383;50.830;7.210;2023-04-01T11:55:23;99098.66;;;12.78;82.23
12636;BME280;6383;50.830;7.210;2023-04-01T11:58:06;99103.41;;;12.81;82.53
12636;BME280;6383;50.830;7.210;2023-04-01T12:01:08;99108.53;;;12.83;82.85
12636;BME280;6383;50.830;7.210;2023-04-01T12:04:05;99110.91;;;12.84;82.81
12636;BME280;6383;50.830;7.210;2023-04-01T12:06:44;99112.06;;;12.83;82.33
12636;BME280;6383;50.830;7.210;2023-04-01T12:09:22;99115.94;;;12.82;82.80
12636;BME280;6383;50.830;7.210;2023-04-01T12:12:01;99109.31;;;12.83;82.14
12636;BME280;6383;50.830;7.210;2023-04-01T12:14:41;99118.75;;;12.86;82.91
12636;BME280;6383;50.830;7.210;2023-04-01T12:17:23;99113.41;;;12.89;83.46
12636;BME280;6383;50.830;7.210;2023-04-01T12:19:58;99119.72;;;12.93;83.78
12636;BME280;6383;50.830;7.210;2023-04-01T12:22:41;99119.81;;;12.97;83.29
12636;BME280;6383;50.830;7.210;2023-04-01T12:25:19;99126.53;;;12.99;82.38
12636;BME280;6383;50.830;7.210;2023-04-01T12:28:02;99126.41;;;12.96;83.69
12636;BME280;6383;50.830;7.210;2023-04-01T12:30:43;99125.63;;;12.95;83.93
12636;BME280;6383;50.830;7.210;2023-04-01T12:33:34;99128.34;;;12.95;83.34
12636;BME280;6383;50.830;7.210;2023-04-01T12:36:17;99143.94;;;12.95;83.98
12636;BME280;6383;50.830;7.210;2023-04-01T12:38:56;99144.75;;;12.95;84.11
12636;BME280;6383;50.830;7.210;2023-04-01T12:41:39;99145.19;;;12.97;83.16
12636;BME280;6383;50.830;7.210;2023-04-01T12:44:33;99142.47;;;12.97;83.38
12636;BME280;6383;50.830;7.210;2023-04-01T12:47:31;99151.09;;;12.99;84.12
12636;BME280;6383;50.830;7.210;2023-04-01T12:50:26;99154.53;;;12.96;83.59
12636;BME280;6383;50.830;7.210;2023-04-01T12:53:11;99148.28;;;12.96;83.99
12636;BME280;6383;50.830;7.210;2023-04-01T12:55:45;99156.13;;;12.97;84.35
12636;BME280;6383;50.830;7.210;2023-04-01T12:58:51;99155.78;;;12.99;84.05
12636;BME280;6383;50.830;7.210;2023-04-01T13:01:30;99160.78;;;12.97;84.94
12636;BME280;6383;50.830;7.210;2023-04-01T13:04:25;99168.63;;;12.98;84.58
12636;BME280;6383;50.830;7.210;2023-04-01T13:07:28;99174.44;;;12.97;84.32
12636;BME280;6383;50.830;7.210;2023-04-01T13:10:06;99174.69;;;12.92;83.91
12636;BME280;6383;50.830;7.210;2023-04-01T13:12:58;99176.19;;;12.89;83.50
12636;BME280;6383;50.830;7.210;2023-04-01T13:15:36;99169.84;;;12.85;83.49
12636;BME280;6383;50.830;7.210;2023-04-01T13:18:14;99176.44;;;12.84;83.25
12636;BME280;6383;50.830;7.210;2023-04-01T13:20:53;99176.00;;;12.82;83.77
12636;BME280;6383;50.830;7.210;2023-04-01T13:23:33;99183.03;;;12.83;83.46
12636;BME280;6383;50.830;7.210;2023-04-01T13:26:13;99187.72;;;12.83;83.79
12636;BME280;6383;50.830;7.210;2023-04-01T13:28:50;99189.31;;;12.84;83.87
12636;BME280;6383;50.830;7.210;2023-04-01T13:31:33;99187.03;;;12.86;83.43
12636;BME280;6383;50.830;7.210;2023-04-01T13:34:16;99182.00;;;12.88;83.65
12636;BME280;6383;50.830;7.210;2023-04-01T13:36:57;99189.06;;;12.89;83.54
12636;BME280;6383;50.830;7.210;2023-04-01T13:39:43;99190.28;;;12.91;83.30
12636;BME280;6383;50.830;7.210;2023-04-01T13:42:22;99192.66;;;12.93;83.36
12636;BME280;6383;50.830;7.210;2023-04-01T13:44:56;99199.00;;;12.97;83.17
12636;BME280;6383;50.830;7.210;2023-04-01T13:47:49;99196.72;;;12.99;82.74
12636;BME280;6383;50.830;7.210;2023-04-01T13:50:34;99199.13;;;13.00;82.76
12636;BME280;6383;50.830;7.210;2023-04-01T13:53:30;99194.44;;;13.01;82.25
12636;BME280;6383;50.830;7.210;2023-04-01T13:56:24;99195.34;;;13.05;82.19
12636;BME280;6383;50.830;7.210;2023-04-01T13:59:13;99199.22;;;13.04;82.60
12636;BME280;6383;50.830;7.210;2023-04-01T14:01:54;99205.91;;;13.06;82.05
12636;BME280;6383;50.830;7.210;2023-04-01T14:04:47;99208.28;;;13.08;82.25
12636;BME280;6383;50.830;7.210;2023-04-01T14:07:32;99213.41;;;13.10;81.84
12636;BME280;6383;50.830;7.210;2023-04-01T14:10:17;99220.44;;;13.11;81.79
12636;BME280;6383;50.830;7.210;2023-04-01T14:12:54;99223.19;;;13.11;82.05
12636;BME280;6383;50.830;7.210;2023-04-01T14:15:41;99223.63;;;13.13;81.58
12636;BME280;6383;50.830;7.210;2023-04-01T14:18:51;99220.22;;;13.16;81.79
12636;BME280;6383;50.830;7.210;2023-04-01T14:21:31;99223.75;;;13.16;82.25
12636;BME280;6383;50.830;7.210;2023-04-01T14:24:31;99228.94;;;13.21;82.41
12636;BME280;6383;50.830;7.210;2023-04-01T14:27:19;99222.78;;;13.24;81.50
12636;BME280;6383;50.830;7.210;2023-04-01T14:30:13;99234.97;;;13.27;81.32
12636;BME280;6383;50.830;7.210;2023-04-01T14:32:54;99222.44;;;13.26;81.01
12636;BME280;6383;50.830;7.210;2023-04-01T14:35:33;99236.56;;;13.28;80.63
12636;BME280;6383;50.830;7.210;2023-04-01T14:38:11;99232.69;;;13.29;80.30
12636;BME280;6383;50.830;7.210;2023-04-01T14:40:55;99236.22;;;13.29;80.77
12636;BME280;6383;50.830;7.210;2023-04-01T14:43:41;99240.53;;;13.30;80.16
12636;BME280;6383;50.830;7.210;2023-04-01T14:46:30;99243.59;;;13.29;80.33
12636;BME280;6383;50.830;7.210;2023-04-01T14:49:13;99243.59;;;13.29;80.44
12636;BME280;6383;50.830;7.210;2023-04-01T14:51:44;99248.63;;;13.27;79.92
12636;BME280;6383;50.830;7.210;2023-04-01T14:54:16;99248.63;;;13.27;80.02
12636;BME280;6383;50.830;7.210;2023-04-01T14:56:51;99247.47;;;13.28;80.17
12636;BME280;6383;50.830;7.210;2023-04-01T14:59:29;99251.00;;;13.28;80.21
12636;BME280;6383;50.830;7.210;2023-04-01T15:02:06;99253.41;;;13.30;80.09
12636;BME280;6383;50.830;7.210;2023-04-01T15:04:46;99255.44;;;13.33;80.67
12636;BME280;6383;50.830;7.210;2023-04-01T15:07:33;99260.91;;;13.33;80.33
12636;BME280;6383;50.830;7.210;2023-04-01T15:10:10;99260.91;;;13.33;80.29
12636;BME280;6383;50.830;7.210;2023-04-01T15:12:56;99269.09;;;13.33;79.80
12636;BME280;6383;50.830;7.210;2023-04-01T15:15:36;99271.84;;;13.33;80.31
12636;BME280;6383;50.830;7.210;2023-04-01T15:18:13;99278.78;;;13.30;79.65
12636;BME280;6383;50.830;7.210;2023-04-01T15:23:58;99281.06;;;13.28;80.08